サルタ の空港の天気 - METARとTAF

サルタ空港 ( SASA / SLA ) - アルゼンチン サルタ州、Salta
飛行場実況気象(Metar)
観測時間11/17 14:00 ART (11/17 17:00 UTC)
風向・風速静穏 0m/s
視程10km以上
天気現象
少しの雲 雲底高度 610m
全天の8割程度の雲 雲底高度 6100m
気温30℃
湿度43%
気圧1009hPa
METARSASA 171700Z 00000KT 9999 FEW020 BKN200 30/16 Q1009
過去の天気等 Google飛行場航空写真 Wunderground天気予報

過去48時間のMETAR

飛行場予報(TAF)
発表時間: 11/17 14:00 ART (11/17 17:00 UTC)
予報対象時間: 17日15時 ART ~ 18日15時 ART
風向・風速不定 2m/s
視程10km以上
全天の4割程度の雲 雲底高度 610m
17日17時 ART ~ 17日20時 ART に徐々に
風向・風速東 5m/s
視程10km以上
全天の4割程度の雲 雲底高度 610m
少しの積乱雲 雲底高度 1220m
17日20時 ART ~ 17日22時 ART に徐々に
風向・風速南 5m/s
視程5000m
天気現象雷雨
全天の4割程度の雲 雲底高度 460m
少しの積乱雲 雲底高度 1070m
全天の8割程度の雲 雲底高度 1220m
18日4時 ART ~ 18日6時 ART に徐々に
風向・風速南 3m/s
視程7000m
全天の8割程度の雲 雲底高度 460m
全天を覆う雲 雲底高度 1520m
TAF SASA 171700Z 1718/1818 VRB03KT 9999 SCT020 TX23/1818Z TN19/1810Z
BECMG 1720/1723 09010KT 9999 SCT020 FEW040CB
BECMG 1723/1801 18010KT 5000 TSRA SCT015 FEW035CB BKN040
BECMG 1807/1809 18005KT 7000 BKN015 OVC050